ETOU

Wiesbaden Army Airfield Airport

Wiesbaden, Germany
METAR ETOU 191956Z AUTO 01004KT 9999 BKN050 21/16 A3023 RMK AO2 SLP234 T02070155 $
Observed Flight Rules
Jun-19 @ 19:56 UTC (24 minutes ago) Visual Flight Rules
Wind Visibility Clouds
10° at 4 knots 10,000+ meters
  • Broken at 5,000' AGL
Temperatures Readings
Current 21°C / 70°F
Dewpoint 16°C / 61°F
Humidity 73%
Altimeter 30.23" Hg
Pressure 1023.4 hPa
Elevation 141
METAR ETOU 191956Z AUTO 01004KT 9999 BKN050 21/16 A3023 RMK AO2 SLP234 T02070155 $
Observed Flight Rules
Jun-19 @ 19:56 UTC
(24 minutes ago)
VFR
Wind Visibility
10° at 4 knots 10,000+ meters
Clouds
  • Broken at 5,000' AGL
Temperature Dewpoint
21°C / 70°F 16°C / 61°F
Humidity Altimeter Pressure
73% 30.23" Hg 1023.4 hPa